Time,TemperatureF,DewpointF,PressureIn,WindDirection,WindDirectionDegrees,WindSpeedMPH,WindSpeedGustMPH,Humidity,HourlyPrecipIn,Conditions,Clouds,dailyrainin,SoftwareType,DateUTC
2013-04-07 00:04:00,50.2,29.0,29.01,SW,214,5.0,16.0,45,0.00,,,0.00,weatherlink.com 1.10,2013-04-07 04:04:00,
2013-04-07 00:19:00,50.4,30.0,29.00,SSE,154,9.0,18.0,46,0.00,,,0.00,weatherlink.com 1.10,2013-04-07 04:19:00,
2013-04-07 00:34:00,50.4,33.0,28.99,SSW,193,3.0,17.0,51,0.00,,,0.00,weatherlink.com 1.10,2013-04-07 04:34:00,
2013-04-07 00:49:00,49.6,34.0,28.98,South,173,8.0,13.0,55,0.00,,,0.00,weatherlink.com 1.10,2013-04-07 04:49:00,
2013-04-07 01:04:00,49.1,33.0,28.96,SSW,208,2.0,12.0,55,0.00,,,0.00,weatherlink.com 1.10,2013-04-07 05:04:00,
2013-04-07 01:19:00,49.1,32.0,28.95,SSW,210,3.0,12.0,53,0.00,,,0.00,weatherlink.com 1.10,2013-04-07 05:19:00,
2013-04-07 01:34:00,49.5,31.0,28.94,SSW,196,5.0,11.0,49,0.00,,,0.00,weatherlink.com 1.10,2013-04-07 05:34:00,
2013-04-07 01:49:00,50.1,30.0,28.93,SSE,164,4.0,11.0,47,0.00,,,0.00,weatherlink.com 1.10,2013-04-07 05:49:00,
2013-04-07 04:03:00,53.8,40.0,28.84,SSW,212,4.0,14.0,61,0.00,,,0.00,weatherlink.com 1.10,2013-04-07 08:03:00,
2013-04-07 04:39:00,55.9,44.0,28.84,SSE,159,3.0,21.0,64,0.00,,,0.00,weatherlink.com 1.10,2013-04-07 08:39:00,
2013-04-07 04:49:00,54.9,46.0,28.84,SW,231,9.0,14.0,72,0.00,,,0.00,weatherlink.com 1.10,2013-04-07 08:49:00,
2013-04-07 05:04:00,53.5,47.0,28.84,SSW,198,10.0,18.0,78,0.00,,,0.00,weatherlink.com 1.10,2013-04-07 09:04:00,
2013-04-07 05:19:00,52.9,48.0,28.83,SSW,212,11.0,13.0,82,0.00,,,0.00,weatherlink.com 1.10,2013-04-07 09:19:00,
2013-04-07 05:34:00,52.6,48.0,28.83,SW,217,10.0,13.0,83,0.00,,,0.00,weatherlink.com 1.10,2013-04-07 09:34:00,
2013-04-07 05:49:00,53.1,48.0,28.83,South,188,5.0,15.0,82,0.00,,,0.00,weatherlink.com 1.10,2013-04-07 09:49:00,
2013-04-07 06:04:00,53.4,48.0,28.83,SW,233,17.0,17.0,82,0.00,,,0.00,weatherlink.com 1.10,2013-04-07 10:04:00,
2013-04-07 06:19:00,52.7,48.0,28.84,West,260,7.0,16.0,85,0.00,,,0.00,weatherlink.com 1.10,2013-04-07 10:19:00,
2013-04-07 06:34:00,52.3,49.0,28.84,WSW,243,10.0,18.0,87,0.00,,,0.00,weatherlink.com 1.10,2013-04-07 10:34:00,
2013-04-07 06:49:00,51.9,49.0,28.85,WSW,242,9.0,14.0,88,0.00,,,0.00,weatherlink.com 1.10,2013-04-07 10:49:00,
2013-04-07 07:04:00,51.3,48.0,28.86,WSW,240,5.0,19.0,87,0.00,,,0.00,weatherlink.com 1.10,2013-04-07 11:04:00,
2013-04-07 07:19:00,51.0,47.0,28.87,WSW,248,8.0,21.0,86,0.00,,,0.00,weatherlink.com 1.10,2013-04-07 11:19:00,
2013-04-07 07:34:00,50.4,46.0,28.89,SW,233,13.0,21.0,85,0.00,,,0.00,weatherlink.com 1.10,2013-04-07 11:34:00,
2013-04-07 07:49:00,49.7,44.0,28.91,WSW,246,11.0,17.0,82,0.00,,,0.00,weatherlink.com 1.10,2013-04-07 11:49:00,
2013-04-07 08:05:00,47.8,42.0,28.93,WSW,258,14.0,22.0,80,0.00,,,0.00,weatherlink.com 1.10,2013-04-07 12:05:00,
2013-04-07 08:20:00,46.4,41.0,28.94,SW,231,9.0,20.0,80,0.00,,,0.00,weatherlink.com 1.10,2013-04-07 12:20:00,
2013-04-07 08:35:00,45.7,40.0,28.97,WSW,252,7.0,21.0,80,0.00,,,0.00,weatherlink.com 1.10,2013-04-07 12:35:00,
2013-04-07 08:50:00,45.1,40.0,28.98,WSW,243,11.0,20.0,81,0.00,,,0.00,weatherlink.com 1.10,2013-04-07 12:50:00,
2013-04-07 09:05:00,44.6,39.0,28.99,SW,228,9.0,22.0,81,0.00,,,0.00,weatherlink.com 1.10,2013-04-07 13:05:00,
2013-04-07 09:20:00,43.8,39.0,29.00,SW,236,8.0,19.0,82,0.00,,,0.00,weatherlink.com 1.10,2013-04-07 13:20:00,
2013-04-07 09:35:00,43.2,38.0,29.01,West,259,14.0,18.0,82,0.00,,,0.00,weatherlink.com 1.10,2013-04-07 13:35:00,
2013-04-07 09:50:00,43.6,38.0,29.02,WSW,255,8.0,16.0,80,0.00,,,0.00,weatherlink.com 1.10,2013-04-07 13:50:00,
2013-04-07 10:05:00,44.4,37.0,29.03,WNW,294,6.0,19.0,74,0.00,,,0.00,weatherlink.com 1.10,2013-04-07 14:05:00,
2013-04-07 10:20:00,43.9,36.0,29.04,WSW,256,13.0,17.0,75,0.00,,,0.00,weatherlink.com 1.10,2013-04-07 14:20:00,
2013-04-07 10:35:00,43.2,37.0,29.05,WSW,255,5.0,14.0,78,0.00,,,0.00,weatherlink.com 1.10,2013-04-07 14:35:00,
2013-04-07 10:50:00,42.7,37.0,29.07,WSW,250,10.0,19.0,80,0.00,,,0.00,weatherlink.com 1.10,2013-04-07 14:50:00,
2013-04-07 11:05:00,42.7,37.0,29.08,WSW,246,5.0,15.0,81,0.00,,,0.00,weatherlink.com 1.10,2013-04-07 15:05:00,
2013-04-07 11:20:00,42.2,36.0,29.09,SW,221,13.0,19.0,80,0.00,,,0.00,weatherlink.com 1.10,2013-04-07 15:20:00,
2013-04-07 11:35:00,42.2,36.0,29.10,SW,221,7.0,14.0,80,0.00,,,0.00,weatherlink.com 1.10,2013-04-07 15:35:00,
2013-04-07 11:50:00,41.8,36.0,29.11,West,273,7.0,15.0,81,0.00,,,0.00,weatherlink.com 1.10,2013-04-07 15:50:00,
2013-04-07 12:05:00,41.7,36.0,29.12,SW,224,8.0,14.0,81,0.00,,,0.00,weatherlink.com 1.10,2013-04-07 16:05:00,
2013-04-07 12:20:00,42.5,37.0,29.13,West,270,3.0,12.0,80,0.00,,,0.00,weatherlink.com 1.10,2013-04-07 16:20:00,
2013-04-07 12:35:00,42.2,36.0,29.14,WSW,253,10.0,19.0,78,0.00,,,0.00,weatherlink.com 1.10,2013-04-07 16:35:00,
2013-04-07 12:50:00,42.5,36.0,29.15,SW,225,6.0,17.0,77,0.00,,,0.00,weatherlink.com 1.10,2013-04-07 16:50:00,
2013-04-07 13:06:00,42.6,36.0,29.15,SW,236,12.0,19.0,77,0.00,,,0.00,weatherlink.com 1.10,2013-04-07 17:06:00,
2013-04-07 13:20:00,43.1,36.0,29.16,WSW,245,15.0,15.0,75,0.00,,,0.00,weatherlink.com 1.10,2013-04-07 17:20:00,
2013-04-07 13:35:00,43.3,36.0,29.17,WNW,293,8.0,14.0,74,0.00,,,0.00,weatherlink.com 1.10,2013-04-07 17:35:00,
2013-04-07 13:50:00,44.1,36.0,29.18,SW,217,10.0,13.0,72,0.00,,,0.00,weatherlink.com 1.10,2013-04-07 17:50:00,
2013-04-07 14:06:00,43.7,35.0,29.18,SW,236,9.0,16.0,71,0.00,,,0.00,weatherlink.com 1.10,2013-04-07 18:06:00,
2013-04-07 14:23:00,44.1,35.0,29.19,WSW,256,10.0,15.0,70,0.00,,,0.00,weatherlink.com 1.10,2013-04-07 18:23:00,
2013-04-07 14:36:00,43.7,34.0,29.20,SSW,211,6.0,14.0,69,0.00,,,0.00,weatherlink.com 1.10,2013-04-07 18:36:00,
2013-04-07 14:51:00,43.8,34.0,29.21,West,264,5.0,12.0,69,0.00,,,0.00,weatherlink.com 1.10,2013-04-07 18:51:00,
2013-04-07 15:21:00,43.3,34.0,29.22,West,265,5.0,12.0,69,0.00,,,0.00,weatherlink.com 1.10,2013-04-07 19:21:00,
2013-04-07 15:51:00,43.1,34.0,29.23,WSW,243,4.0,15.0,69,0.00,,,0.00,weatherlink.com 1.10,2013-04-07 19:51:00,
2013-04-07 16:06:00,43.6,34.0,29.24,SW,232,3.0,12.0,68,0.00,,,0.00,weatherlink.com 1.10,2013-04-07 20:06:00,
2013-04-07 16:21:00,43.5,33.0,29.24,WSW,253,4.0,14.0,67,0.00,,,0.00,weatherlink.com 1.10,2013-04-07 20:21:00,
2013-04-07 16:36:00,43.1,33.0,29.25,SW,231,7.0,14.0,67,0.00,,,0.00,weatherlink.com 1.10,2013-04-07 20:36:00,
2013-04-07 16:51:00,43.4,33.0,29.25,WSW,254,7.0,12.0,67,0.00,,,0.00,weatherlink.com 1.10,2013-04-07 20:51:00,
2013-04-07 17:36:00,43.2,33.0,29.28,SW,228,4.0,10.0,67,0.00,,,0.00,weatherlink.com 1.10,2013-04-07 21:36:00,
2013-04-07 18:36:00,42.8,32.0,29.30,WSW,243,4.0,6.0,67,0.00,,,0.00,weatherlink.com 1.10,2013-04-07 22:36:00,
2013-04-07 19:06:00,42.6,32.0,29.30,WSW,249,6.0,8.0,67,0.00,,,0.00,weatherlink.com 1.10,2013-04-07 23:06:00,
2013-04-07 19:21:00,42.4,32.0,29.30,NW,305,1.0,6.0,68,0.00,,,0.00,weatherlink.com 1.10,2013-04-07 23:21:00,
2013-04-07 19:36:00,42.1,33.0,29.30,WSW,252,2.0,3.0,70,0.00,,,0.00,weatherlink.com 1.10,2013-04-07 23:36:00,
2013-04-07 19:51:00,41.8,32.0,29.31,West,259,1.0,4.0,69,0.00,,,0.00,weatherlink.com 1.10,2013-04-07 23:51:00,
2013-04-07 20:06:00,41.5,32.0,29.31,NNE,20,0.0,4.0,70,0.00,,,0.00,weatherlink.com 1.10,2013-04-08 00:06:00,
2013-04-07 20:21:00,41.3,32.0,29.31,West,274,1.0,3.0,70,0.00,,,0.00,weatherlink.com 1.10,2013-04-08 00:21:00,
2013-04-07 20:36:00,41.1,32.0,29.32,West,264,1.0,3.0,71,0.00,,,0.00,weatherlink.com 1.10,2013-04-08 00:36:00,
2013-04-07 20:51:00,41.0,32.0,29.33,WNW,290,2.0,3.0,70,0.00,,,0.00,weatherlink.com 1.10,2013-04-08 00:51:00,
2013-04-07 21:06:00,40.9,32.0,29.33,NNW,342,1.0,3.0,71,0.00,,,0.00,weatherlink.com 1.10,2013-04-08 01:06:00,
2013-04-07 21:22:00,40.6,32.0,29.33,NNE,16,3.0,4.0,70,0.00,,,0.00,weatherlink.com 1.10,2013-04-08 01:22:00,
2013-04-07 21:37:00,40.3,32.0,29.34,NNE,27,0.0,2.0,71,0.00,,,0.00,weatherlink.com 1.10,2013-04-08 01:37:00,
2013-04-07 22:07:00,39.8,31.0,29.34,NE,40,0.0,1.0,72,0.00,,,0.00,weatherlink.com 1.10,2013-04-08 02:07:00,
2013-04-07 22:22:00,39.7,31.0,29.34,NE,40,0.0,1.0,72,0.00,,,0.00,weatherlink.com 1.10,2013-04-08 02:22:00,
2013-04-07 22:37:00,39.5,32.0,29.35,NE,40,0.0,1.0,73,0.00,,,0.00,weatherlink.com 1.10,2013-04-08 02:37:00,
2013-04-07 22:53:00,39.5,32.0,29.35,NE,40,0.0,0.0,73,0.00,,,0.00,weatherlink.com 1.10,2013-04-08 02:53:00,
2013-04-07 23:22:00,39.4,32.0,29.34,SW,231,0.0,1.0,74,0.00,,,0.00,weatherlink.com 1.10,2013-04-08 03:22:00,
2013-04-07 23:37:00,38.8,32.0,29.35,SW,231,0.0,0.0,75,0.00,,,0.00,weatherlink.com 1.10,2013-04-08 03:37:00,